Time;durP1;ratioP1;P1;durP2;ratioP2;P2;SDS_P1;SDS_P2;PMS_P1;PMS_P2;Temp;Humidity;BMP_temperature;BMP_pressure;BME280_temperature;BME280_humidity;BME280_pressure;Samples;Min_cycle;Max_cycle;Signal;HPM_P1;HPM_P2
2022/10/19 00:01:18;;;;;;;30.27;20.90;;;;;;;13.19;89.40;100756.21;1767976;80;25592;-70
2022/10/19 00:03:50;;;;;;;26.10;20.25;;;;;;;13.18;89.24;100754.63;1753910;80;29413;-69
2022/10/19 00:06:27;;;;;;;24.87;18.73;;;;;;;13.15;89.07;100749.03;1767987;80;25518;-69
2022/10/19 00:09:03;;;;;;;25.82;18.30;;;;;;;13.11;88.78;100742.08;1771548;80;25429;-71
2022/10/19 00:11:33;;;;;;;23.75;17.62;;;;;;;13.05;88.54;100747.39;1766343;80;25597;-70
2022/10/19 00:14:00;;;;;;;25.77;17.87;;;;;;;12.99;88.37;100750.81;1769760;80;25516;-70
2022/10/19 00:16:32;;;;;;;24.35;16.77;;;;;;;12.93;88.09;100743.91;1756565;80;27192;-70
2022/10/19 00:19:05;;;;;;;28.32;16.65;;;;;;;12.85;87.97;100745.47;1743882;80;25590;-71
2022/10/19 00:21:32;;;;;;;25.72;16.45;;;;;;;12.77;87.88;100746.79;1741051;81;25337;-71
2022/10/19 00:24:00;;;;;;;22.90;16.82;;;;;;;12.70;87.90;100742.63;1745868;81;26168;-70
2022/10/19 00:26:27;;;;;;;24.70;17.37;;;;;;;12.64;87.84;100746.58;1742438;80;25396;-70
2022/10/19 00:28:56;;;;;;;21.37;16.15;;;;;;;12.59;87.84;100742.64;1741104;80;27156;-70
2022/10/19 00:31:25;;;;;;;22.25;15.55;;;;;;;12.51;87.74;100751.00;1745218;81;25743;-71
2022/10/19 00:33:53;;;;;;;25.65;15.50;;;;;;;12.46;87.75;100748.41;1744342;80;25527;-71
2022/10/19 00:36:31;;;;;;;21.50;15.65;;;;;;;12.42;87.80;100750.13;1722959;81;25617;-71
2022/10/19 00:39:00;;;;;;;23.60;15.68;;;;;;;12.38;87.63;100745.63;1707717;80;25364;-71
2022/10/19 00:41:32;;;;;;;21.73;15.63;;;;;;;12.32;87.71;100749.03;1720047;81;27193;-71
2022/10/19 00:44:10;;;;;;;24.90;14.87;;;;;;;12.25;87.53;100744.03;1743891;80;25467;-71
2022/10/19 00:46:50;;;;;;;19.95;14.33;;;;;;;12.18;87.39;100749.09;1746708;81;25434;-71
2022/10/19 00:49:22;;;;;;;22.30;14.60;;;;;;;12.14;87.18;100752.19;1723272;80;25709;-72
2022/10/19 00:51:55;;;;;;;25.82;14.47;;;;;;;12.07;87.04;100753.16;1719299;81;25457;-71
2022/10/19 00:54:24;;;;;;;18.15;12.88;;;;;;;12.00;86.98;100743.30;1743047;80;27266;-71
2022/10/19 00:56:55;;;;;;;19.65;13.55;;;;;;;11.93;87.02;100741.01;1742245;81;25761;-72
2022/10/19 00:59:24;;;;;;;17.95;12.20;;;;;;;11.87;87.07;100742.22;1720480;80;25537;-72
2022/10/19 01:01:53;;;;;;;20.62;11.80;;;;;;;11.82;86.70;100741.78;1746115;80;25622;-72
2022/10/19 01:04:23;;;;;;;19.05;11.70;;;;;;;11.78;86.73;100743.48;1765306;79;25359;-71
2022/10/19 01:06:52;;;;;;;18.35;11.40;;;;;;;11.73;86.74;100744.95;1772730;80;27901;-71
2022/10/19 01:09:19;;;;;;;16.87;10.55;;;;;;;11.65;86.54;100745.14;1767497;79;25682;-71
2022/10/19 01:12:01;;;;;;;22.75;11.88;;;;;;;11.57;86.35;100738.52;1775548;79;25560;-71
2022/10/19 01:14:48;;;;;;;22.17;11.22;;;;;;;11.51;86.22;100733.52;1774830;79;25698;-71
2022/10/19 01:17:55;;;;;;;18.80;10.58;;;;;;;11.44;86.38;100729.89;1723899;80;25671;-71
2022/10/19 01:20:51;;;;;;;20.30;10.82;;;;;;;11.39;86.35;100734.86;1745652;80;27269;-71
2022/10/19 01:23:30;;;;;;;22.70;11.38;;;;;;;11.30;86.45;100724.47;1748428;81;25601;-70
2022/10/19 01:26:38;;;;;;;16.57;10.05;;;;;;;11.26;86.60;100727.55;1773038;79;25373;-70
2022/10/19 01:29:36;;;;;;;19.35;10.10;;;;;;;11.21;86.93;100728.44;1772119;79;25492;-70
2022/10/19 01:32:11;;;;;;;19.27;10.58;;;;;;;11.18;87.22;100723.62;1757406;79;26363;-70
2022/10/19 01:34:52;;;;;;;14.53;10.23;;;;;;;11.15;87.39;100721.55;1768643;80;27909;-70
2022/10/19 01:37:50;;;;;;;16.42;11.08;;;;;;;11.12;87.48;100724.86;1772306;79;25381;-70
2022/10/19 01:40:31;;;;;;;20.02;9.98;;;;;;;11.13;87.77;100716.97;1730983;80;25561;-69
2022/10/19 01:43:23;;;;;;;22.30;10.10;;;;;;;11.13;87.87;100716.17;1746496;81;25749;-70
2022/10/19 01:45:54;;;;;;;18.40;10.75;;;;;;;11.12;87.95;100711.31;1745459;81;25604;-70
2022/10/19 01:48:29;;;;;;;21.25;10.68;;;;;;;11.12;88.25;100705.11;1745395;81;27365;-71
2022/10/19 01:51:11;;;;;;;18.65;10.48;;;;;;;11.13;88.38;100702.07;1746830;81;25638;-70
2022/10/19 01:53:46;;;;;;;18.77;10.65;;;;;;;11.12;88.30;100701.05;1773441;79;25471;-70
2022/10/19 01:56:16;;;;;;;19.92;10.68;;;;;;;11.14;88.83;100693.42;1774260;80;25681;-71
2022/10/19 01:58:45;;;;;;;19.87;11.08;;;;;;;11.13;88.69;100694.52;1769315;80;25464;-71
2022/10/19 02:01:15;;;;;;;21.23;12.03;;;;;;;11.12;88.80;100693.72;1772442;79;27294;-71
2022/10/19 02:03:43;;;;;;;19.40;11.83;;;;;;;11.14;89.00;100694.21;1768958;80;25523;-71
2022/10/19 02:06:12;;;;;;;20.35;12.53;;;;;;;11.14;89.33;100692.86;1769221;79;25695;-70
2022/10/19 02:08:44;;;;;;;18.82;13.35;;;;;;;11.16;89.39;100692.56;1747143;81;32337;-71
2022/10/19 02:11:11;;;;;;;21.17;14.28;;;;;;;11.15;89.55;100686.35;1747241;80;25557;-71
2022/10/19 02:13:40;;;;;;;27.67;14.10;;;;;;;11.17;89.59;100681.99;1770262;80;27318;-71
2022/10/19 02:16:19;;;;;;;29.07;14.68;;;;;;;11.17;89.78;100681.99;1768402;80;25516;-70
2022/10/19 02:18:50;;;;;;;23.55;14.68;;;;;;;11.16;89.76;100686.58;1766003;79;25544;-70
2022/10/19 02:21:18;;;;;;;24.90;14.80;;;;;;;11.18;90.03;100683.58;1769536;79;25664;-70
2022/10/19 02:23:45;;;;;;;23.83;14.47;;;;;;;11.18;90.01;100680.30;1772213;80;25343;-70
2022/10/19 02:26:13;;;;;;;24.65;12.90;;;;;;;11.23;90.22;100679.97;1764857;79;27851;-70
2022/10/19 02:28:40;;;;;;;20.10;13.22;;;;;;;11.22;90.08;100681.88;1768577;79;25461;-70
2022/10/19 02:31:09;;;;;;;24.50;13.08;;;;;;;11.22;90.09;100680.53;1769054;79;25486;-70
2022/10/19 02:33:36;;;;;;;21.87;13.62;;;;;;;11.23;89.93;100675.91;1769899;79;25629;-70
2022/10/19 02:36:04;;;;;;;19.45;12.37;;;;;;;11.24;89.89;100678.84;1776541;79;25448;-70
2022/10/19 02:38:31;;;;;;;20.50;12.45;;;;;;;11.25;89.85;100679.11;1770760;79;26916;-70
2022/10/19 02:41:10;;;;;;;33.95;13.25;;;;;;;11.25;89.87;100675.84;1771066;79;25742;-70
2022/10/19 02:43:42;;;;;;;19.75;12.30;;;;;;;11.24;89.73;100670.19;1771255;79;25516;-69
2022/10/19 02:46:14;;;;;;;21.45;13.25;;;;;;;11.23;89.77;100671.84;1766606;79;25713;-70
2022/10/19 02:48:43;;;;;;;21.37;11.30;;;;;;;11.24;89.66;100670.19;1741675;81;25368;-69
2022/10/19 02:51:41;;;;;;;25.92;11.45;;;;;;;11.23;89.63;100663.16;1743732;81;27177;-69
2022/10/19 02:54:08;;;;;;;23.27;12.53;;;;;;;11.21;89.41;100668.88;1739565;81;25331;-70
2022/10/19 02:56:35;;;;;;;21.23;11.25;;;;;;;11.19;89.13;100669.73;1743673;81;25623;-70
2022/10/19 02:59:03;;;;;;;20.90;11.10;;;;;;;11.18;89.07;100663.27;1741524;81;25606;-70
2022/10/19 03:01:30;;;;;;;21.77;11.80;;;;;;;11.13;88.92;100664.17;1746685;80;25450;-70
2022/10/19 03:03:57;;;;;;;21.65;11.40;;;;;;;11.08;88.57;100664.28;1746093;81;27311;-70
2022/10/19 03:06:24;;;;;;;18.05;10.82;;;;;;;11.02;88.36;100662.24;1747579;81;25635;-70
2022/10/19 03:08:51;;;;;;;18.87;11.30;;;;;;;10.99;88.37;100672.88;1744975;81;25515;-70
2022/10/19 03:11:19;;;;;;;20.35;11.03;;;;;;;10.96;88.22;100662.64;1744702;81;25696;-70
2022/10/19 03:13:46;;;;;;;20.27;11.22;;;;;;;10.91;88.10;100668.16;1710820;81;25498;-70
2022/10/19 03:16:13;;;;;;;19.17;10.98;;;;;;;10.85;88.07;100666.12;1703695;81;27940;-70
2022/10/19 03:18:41;;;;;;;20.12;12.73;;;;;;;10.81;88.13;100667.81;1703735;82;25350;-70
2022/10/19 03:21:12;;;;;;;17.55;11.70;;;;;;;10.78;88.22;100665.73;1703970;82;25370;-70
2022/10/19 03:23:40;;;;;;;23.27;12.10;;;;;;;10.74;88.19;100662.80;1707026;81;26389;-70
2022/10/19 03:26:13;;;;;;;18.98;12.37;;;;;;;10.70;88.17;100652.90;1702730;81;25611;-70
2022/10/19 03:28:41;;;;;;;24.02;12.03;;;;;;;10.67;88.26;100654.28;1702832;81;27169;-70
2022/10/19 03:31:08;;;;;;;15.65;10.50;;;;;;;10.62;88.31;100653.86;1699192;83;25551;-70
2022/10/19 03:33:35;;;;;;;18.12;11.45;;;;;;;10.60;88.24;100653.89;1703536;83;25380;-70
2022/10/19 03:36:19;;;;;;;17.42;11.88;;;;;;;10.57;88.17;100646.37;1706941;83;26313;-70
2022/10/19 03:38:51;;;;;;;22.67;12.10;;;;;;;10.54;88.43;100648.31;1688637;83;25471;-70
2022/10/19 03:41:21;;;;;;;19.70;11.97;;;;;;;10.52;88.42;100651.88;1699461;82;27271;-70
2022/10/19 03:43:49;;;;;;;24.77;12.15;;;;;;;10.46;88.52;100646.56;1702707;83;25577;-69
2022/10/19 03:46:17;;;;;;;23.40;12.30;;;;;;;10.45;88.69;100651.73;1705584;83;25538;-70
2022/10/19 03:48:45;;;;;;;24.02;11.53;;;;;;;10.40;88.96;100642.37;1702873;81;26279;-70
2022/10/19 03:51:19;;;;;;;19.07;11.55;;;;;;;10.38;88.74;100652.66;1712584;81;25550;-70
2022/10/19 03:53:56;;;;;;;21.73;11.68;;;;;;;10.39;88.92;100654.84;1699006;83;27196;-70
2022/10/19 03:56:27;;;;;;;20.88;12.10;;;;;;;10.37;89.09;100646.20;1708489;82;25335;-70
2022/10/19 03:58:57;;;;;;;20.90;12.53;;;;;;;10.35;89.40;100643.81;1706252;83;26337;-70
2022/10/19 04:01:37;;;;;;;23.38;12.37;;;;;;;10.34;89.55;100642.20;1704763;81;25614;-70
2022/10/19 04:04:12;;;;;;;21.95;11.90;;;;;;;10.35;89.76;100638.41;1706379;82;25404;-70
2022/10/19 04:06:43;;;;;;;20.30;12.70;;;;;;;10.38;89.96;100645.11;1706000;81;27214;-70
2022/10/19 04:09:14;;;;;;;22.73;12.37;;;;;;;10.39;90.06;100644.02;1709529;82;25503;-70
2022/10/19 04:11:41;;;;;;;23.22;12.70;;;;;;;10.38;90.14;100640.49;1709007;81;25469;-70
2022/10/19 04:14:13;;;;;;;24.65;12.13;;;;;;;10.43;90.22;100642.30;1702384;82;25618;-69
2022/10/19 04:16:41;;;;;;;21.82;13.10;;;;;;;10.44;90.37;100652.83;1704169;81;25322;-70
2022/10/19 04:19:08;;;;;;;18.67;11.20;;;;;;;10.46;90.30;100649.83;1704291;83;27787;-70
2022/10/19 04:21:39;;;;;;;21.00;12.25;;;;;;;10.45;90.49;100642.80;1691864;81;25399;-70
2022/10/19 04:24:12;;;;;;;19.70;12.23;;;;;;;10.48;90.41;100640.06;1703306;83;25400;-69
2022/10/19 04:26:52;;;;;;;19.95;11.78;;;;;;;10.50;90.38;100641.91;1705412;82;25903;-69
2022/10/19 04:29:22;;;;;;;18.82;11.50;;;;;;;10.50;90.33;100635.16;1703684;83;25419;-69
2022/10/19 04:31:52;;;;;;;24.23;11.50;;;;;;;10.52;90.44;100637.00;1702946;82;27898;-69
2022/10/19 04:34:19;;;;;;;17.65;11.43;;;;;;;10.54;90.43;100635.61;1704948;81;25452;-69
2022/10/19 04:36:47;;;;;;;24.80;13.53;;;;;;;10.54;90.45;100631.55;1706084;82;25493;-70
2022/10/19 04:39:14;;;;;;;23.07;12.10;;;;;;;10.55;90.40;100626.94;1709436;82;25632;-70
2022/10/19 04:41:41;;;;;;;17.77;11.38;;;;;;;10.54;90.52;100634.79;1699514;83;25574;-70
2022/10/19 04:44:08;;;;;;;21.45;11.40;;;;;;;10.56;90.44;100625.84;1704520;82;27251;-69
2022/10/19 04:46:37;;;;;;;19.57;11.33;;;;;;;10.58;90.47;100633.11;1702096;81;25656;-69
2022/10/19 04:49:05;;;;;;;20.45;11.63;;;;;;;10.60;90.62;100620.87;1703289;81;25500;-69
2022/10/19 04:51:33;;;;;;;18.32;11.90;;;;;;;10.62;90.38;100618.69;1700063;83;27763;-69
2022/10/19 04:54:03;;;;;;;25.30;12.20;;;;;;;10.63;90.43;100618.92;1707828;81;25603;-69
2022/10/19 04:56:31;;;;;;;;;;;;;;;10.68;90.41;100609.12;1710134;82;27238;-70
2022/10/19 04:59:00;;;;;;;18.55;10.88;;;;;;;10.67;90.42;100609.65;1702884;82;25500;-69
2022/10/19 05:01:29;;;;;;;23.42;11.55;;;;;;;10.69;90.26;100609.34;1706872;81;25539;-69
2022/10/19 05:03:59;;;;;;;;;;;;;;;10.70;90.23;100622.58;1709102;82;25652;-69
2022/10/19 05:06:27;;;;;;;21.80;11.40;;;;;;;10.70;90.12;100613.11;1706256;83;33245;-69
2022/10/19 05:08:56;;;;;;;20.50;9.87;;;;;;;10.68;89.90;100609.12;1701445;83;27368;-69
2022/10/19 05:11:23;;;;;;;17.80;10.40;;;;;;;10.67;89.79;100609.65;1699838;83;25584;-69
2022/10/19 05:13:51;;;;;;;19.95;9.98;;;;;;;10.65;89.73;100599.13;1713973;82;25498;-68
2022/10/19 05:16:22;;;;;;;20.57;10.23;;;;;;;10.67;89.79;100600.18;1703470;82;25611;-69
2022/10/19 05:18:55;;;;;;;20.20;9.85;;;;;;;10.67;89.65;100599.39;1698198;83;25516;-71
2022/10/19 05:21:22;;;;;;;20.80;10.05;;;;;;;10.68;89.72;100605.06;1706933;82;27267;-73
2022/10/19 05:23:52;;;;;;;18.57;11.03;;;;;;;10.69;89.84;100602.03;1705604;83;25562;-72
2022/10/19 05:26:24;;;;;;;14.18;9.70;;;;;;;10.70;89.62;100615.02;1704301;83;25654;-72
2022/10/19 05:29:00;;;;;;;23.52;9.65;;;;;;;10.68;89.53;100615.32;1704134;82;26197;-73
2022/10/19 05:31:31;;;;;;;23.22;9.18;;;;;;;10.70;89.47;100612.31;1705925;83;25552;-73
2022/10/19 05:33:59;;;;;;;15.58;9.53;;;;;;;10.72;89.60;100614.16;1708542;82;27268;-73
2022/10/19 05:36:36;;;;;;;17.10;9.25;;;;;;;10.71;89.47;100613.90;1711465;82;25578;-73
2022/10/19 05:39:13;;;;;;;22.70;9.63;;;;;;;10.71;89.54;100607.14;1706388;83;25614;-73
2022/10/19 05:41:46;;;;;;;17.55;8.93;;;;;;;10.70;89.39;100617.17;1703915;83;26178;-72
2022/10/19 05:44:17;;;;;;;18.60;8.85;;;;;;;10.69;89.28;100613.41;1709565;82;25537;-73
2022/10/19 05:46:45;;;;;;;22.75;10.48;;;;;;;10.70;89.42;100612.31;1708149;82;27258;-72
2022/10/19 05:49:15;;;;;;;20.72;9.58;;;;;;;10.72;89.57;100623.07;1707320;82;25527;-72
2022/10/19 05:51:42;;;;;;;22.13;10.38;;;;;;;10.74;89.58;100614.09;1706567;83;25646;-73
2022/10/19 05:54:12;;;;;;;24.00;10.32;;;;;;;10.78;89.74;100616.47;1704721;81;26171;-71
2022/10/19 05:56:40;;;;;;;15.45;9.68;;;;;;;10.80;89.57;100614.81;1707592;82;33184;-72
2022/10/19 05:59:15;;;;;;;23.62;11.57;;;;;;;10.82;89.51;100628.27;1702818;82;27783;-73
2022/10/19 06:01:43;;;;;;;23.92;11.10;;;;;;;10.83;89.34;100618.27;1706260;82;25787;-71
2022/10/19 06:04:12;;;;;;;25.57;10.60;;;;;;;10.86;89.37;100619.00;1705987;83;25682;-71
2022/10/19 06:06:42;;;;;;;23.05;10.85;;;;;;;10.87;89.24;100613.84;1705879;82;34838;-72
2022/10/19 06:09:10;;;;;;;20.80;10.80;;;;;;;10.90;89.01;100616.52;1703132;83;25585;-71
2022/10/19 06:11:40;;;;;;;24.18;10.63;;;;;;;10.90;88.98;100608.39;1703575;83;27194;-73
2022/10/19 06:14:14;;;;;;;19.00;9.78;;;;;;;10.92;89.12;100608.33;1697459;81;25472;-70
2022/10/19 06:16:42;;;;;;;22.48;9.88;;;;;;;10.95;88.79;100615.05;1672610;84;25505;-70
2022/10/19 06:19:09;;;;;;;22.48;9.10;;;;;;;10.96;88.56;100607.95;1693123;83;25687;-70
2022/10/19 06:21:36;;;;;;;17.12;8.60;;;;;;;10.96;88.43;100612.02;1690063;84;25650;-69
2022/10/19 06:24:05;;;;;;;18.17;8.85;;;;;;;10.95;88.20;100606.37;1693757;84;27373;-70
2022/10/19 06:26:34;;;;;;;;;;;;;;;11.00;88.48;100603.55;1689647;84;25621;-69
2022/10/19 06:29:03;;;;;;;17.62;8.63;;;;;;;11.06;88.56;100599.37;1691991;84;25558;-70
2022/10/19 06:31:35;;;;;;;19.37;8.63;;;;;;;11.06;88.24;100598.82;1690289;84;25640;-70
2022/10/19 06:34:03;;;;;;;22.17;10.82;;;;;;;11.07;88.25;100599.08;1678196;84;25392;-70
2022/10/19 06:36:31;;;;;;;18.75;8.85;;;;;;;11.10;87.98;100606.59;1690807;84;27249;-70
2022/10/19 06:39:00;;;;;;;15.88;9.10;;;;;;;11.14;88.25;100606.22;1690498;83;25410;-70
2022/10/19 06:41:30;;;;;;;17.40;8.00;;;;;;;11.23;88.48;100610.92;1686838;84;25560;-70
2022/10/19 06:43:57;;;;;;;;;;;;;;;11.30;88.10;100617.50;1693760;84;25670;-70
2022/10/19 06:46:26;;;;;;;18.90;7.85;;;;;;;11.35;87.89;100613.88;1690683;84;25663;-70
2022/10/19 06:48:56;;;;;;;14.55;8.23;;;;;;;11.40;87.81;100620.54;1688872;84;27185;-70
2022/10/19 06:51:26;;;;;;;21.33;8.63;;;;;;;11.40;87.19;100608.35;1689379;83;25776;-70
2022/10/19 06:53:54;;;;;;;14.00;7.40;;;;;;;11.46;87.43;100617.15;1700049;83;25498;-71
2022/10/19 06:56:23;;;;;;;23.30;7.97;;;;;;;11.49;87.31;100619.25;1697580;84;26123;-70
2022/10/19 06:58:51;;;;;;;17.57;7.85;;;;;;;11.50;86.94;100627.63;1692406;84;25616;-71
2022/10/19 07:01:19;;;;;;;16.00;7.60;;;;;;;11.47;86.81;100619.55;1751618;78;27203;-71
2022/10/19 07:03:50;;;;;;;14.03;8.08;;;;;;;11.47;87.15;100614.70;1790241;78;25614;-71
2022/10/19 07:06:18;;;;;;;16.23;8.55;;;;;;;11.42;86.91;100610.75;1787680;78;25543;-71
2022/10/19 07:08:46;;;;;;;16.75;9.60;;;;;;;11.35;86.59;100604.41;1805621;78;26347;-71
2022/10/19 07:11:21;;;;;;;21.17;8.88;;;;;;;11.28;86.61;100601.33;1764657;78;25681;-70
2022/10/19 07:13:48;;;;;;;13.78;8.88;;;;;;;11.23;86.72;100592.76;1784070;78;27351;-72
2022/10/19 07:16:18;;;;;;;16.15;8.80;;;;;;;11.21;86.98;100596.33;1774205;78;25207;-72
2022/10/19 07:18:46;;;;;;;11.33;8.43;;;;;;;11.21;87.01;100603.89;1774706;78;25477;-71
2022/10/19 07:21:15;;;;;;;21.97;10.72;;;;;;;11.19;87.06;100609.38;1773559;78;26158;-71
2022/10/19 07:23:46;;;;;;;18.65;9.75;;;;;;;11.18;87.34;100616.68;1780420;79;25168;-71
2022/10/19 07:26:22;;;;;;;38.70;19.00;;;;;;;11.24;87.72;100626.05;1776714;78;27205;-71
2022/10/19 07:28:50;;;;;;;15.43;9.95;;;;;;;11.24;87.51;100620.09;1784837;79;25107;-70
2022/10/19 07:31:20;;;;;;;21.02;9.78;;;;;;;11.27;87.71;100618.67;1821373;78;25658;-71
2022/10/19 07:33:56;;;;;;;18.52;9.03;;;;;;;11.31;87.96;100621.83;1824532;78;25691;-71
2022/10/19 07:36:24;;;;;;;18.10;8.75;;;;;;;11.36;88.14;100623.06;1797874;78;25210;-71
2022/10/19 07:38:52;;;;;;;18.65;8.20;;;;;;;11.39;87.81;100625.70;1821729;78;27183;-70
2022/10/19 07:41:23;;;;;;;14.07;8.03;;;;;;;11.34;87.03;100623.92;1795013;78;25502;-66
2022/10/19 07:43:52;;;;;;;12.03;7.72;;;;;;;11.35;87.17;100632.28;1821951;78;25088;-67
2022/10/19 07:46:24;;;;;;;15.08;8.05;;;;;;;11.36;87.26;100618.20;1797978;78;26180;-66
2022/10/19 07:48:52;;;;;;;17.40;8.38;;;;;;;11.43;87.34;100624.56;1821724;78;25153;-66
2022/10/19 07:51:21;;;;;;;11.12;6.42;;;;;;;11.48;87.51;100630.64;1821057;78;27563;-68
2022/10/19 07:53:49;;;;;;;16.82;6.60;;;;;;;11.57;87.62;100627.44;1816591;78;25629;-70
2022/10/19 07:56:21;;;;;;;15.18;6.53;;;;;;;11.63;86.87;100634.09;1786787;78;25599;-69
2022/10/19 07:58:54;;;;;;;14.53;5.92;;;;;;;11.64;86.97;100632.43;1773810;78;26530;-69
2022/10/19 08:01:25;;;;;;;8.18;4.92;;;;;;;11.74;87.38;100634.89;1784492;78;26232;-70
2022/10/19 08:03:55;;;;;;;6.78;5.05;;;;;;;11.78;86.67;100620.17;1812690;78;27189;-70
2022/10/19 08:06:23;;;;;;;9.38;5.12;;;;;;;11.83;86.30;100621.96;1759986;80;25620;-70
2022/10/19 08:08:52;;;;;;;11.33;4.97;;;;;;;11.84;86.26;100626.28;1771575;80;25478;-70
2022/10/19 08:11:26;;;;;;;11.40;4.47;;;;;;;11.87;85.68;100627.03;1796870;78;25828;-70
2022/10/19 08:13:54;;;;;;;11.15;5.50;;;;;;;11.88;85.67;100621.27;1814409;78;25477;-70
2022/10/19 08:16:27;;;;;;;8.98;4.03;;;;;;;11.91;85.54;100620.69;1773659;80;27729;-71
2022/10/19 08:19:00;;;;;;;7.03;4.05;;;;;;;11.92;84.99;100622.86;1789167;78;25542;-70
2022/10/19 08:21:29;;;;;;;7.03;3.75;;;;;;;11.89;84.79;100618.03;1736303;81;25405;-70
2022/10/19 08:23:58;;;;;;;11.12;3.85;;;;;;;11.91;85.10;100620.69;1795024;78;26227;-70
2022/10/19 08:26:28;;;;;;;7.30;3.90;;;;;;;11.93;84.85;100611.69;1772718;79;25575;-70
2022/10/19 08:29:15;;;;;;;12.58;4.37;;;;;;;12.00;85.14;100609.89;1781436;79;27876;-69
2022/10/19 08:31:46;;;;;;;7.37;3.92;;;;;;;12.03;84.78;100617.97;1781358;79;25550;-70
2022/10/19 08:34:14;;;;;;;9.80;5.22;;;;;;;12.07;85.24;100618.94;1781574;79;25523;-70
2022/10/19 08:36:42;;;;;;;10.13;5.13;;;;;;;12.11;84.89;100615.88;1781763;79;26211;-69
2022/10/19 08:39:11;;;;;;;6.78;5.35;;;;;;;12.13;84.81;100613.64;1782043;79;25538;-68
2022/10/19 08:42:05;;;;;;;8.58;6.10;;;;;;;12.11;84.46;100621.30;1782091;80;27767;-69
2022/10/19 08:45:06;;;;;;;6.72;5.30;;;;;;;12.11;84.42;100616.66;1781991;80;25610;-68
2022/10/19 08:48:12;;;;;;;8.88;5.75;;;;;;;12.12;84.41;100609.31;1780706;79;25326;-69
2022/10/19 08:50:43;;;;;;;6.45;5.22;;;;;;;12.08;84.16;100615.92;1782136;79;25723;-68
2022/10/19 08:53:18;;;;;;;8.93;5.30;;;;;;;12.03;84.30;100620.69;1781918;80;25485;-69
2022/10/19 08:56:13;;;;;;;8.05;5.20;;;;;;;12.04;84.61;100617.66;1781661;80;27792;-68
2022/10/19 08:59:07;;;;;;;9.08;4.67;;;;;;;11.99;84.22;100612.38;1773105;79;25315;-67
2022/10/19 09:02:01;;;;;;;13.20;5.70;;;;;;;11.95;84.26;100614.91;1781492;79;25333;-69
2022/10/19 09:04:33;;;;;;;7.53;4.67;;;;;;;11.93;84.37;100619.03;1781883;79;25555;-69
2022/10/19 09:07:31;;;;;;;7.30;4.97;;;;;;;11.92;84.72;100625.01;1781901;78;25360;-69
2022/10/19 09:10:18;;;;;;;12.50;6.12;;;;;;;11.99;85.24;100632.70;1781934;78;27247;-68
2022/10/19 09:12:54;;;;;;;6.10;4.95;;;;;;;12.07;85.38;100637.92;1781783;79;27179;-64
2022/10/19 09:15:29;;;;;;;8.58;5.42;;;;;;;12.07;85.12;100634.67;1760412;79;25656;-65
2022/10/19 09:17:57;;;;;;;8.40;5.30;;;;;;;12.08;85.32;100635.47;1780710;79;25705;-65
2022/10/19 09:20:37;;;;;;;8.85;4.75;;;;;;;12.14;85.65;100635.02;1781916;79;25353;-65
2022/10/19 09:23:31;;;;;;;5.72;4.30;;;;;;;12.20;85.68;100634.33;1781736;79;29484;-65
2022/10/19 09:25:58;;;;;;;7.58;4.58;;;;;;;12.19;85.22;100631.39;1765877;79;25551;-66
2022/10/19 09:28:39;;;;;;;6.50;4.85;;;;;;;12.23;85.31;100642.41;1781942;79;25490;-67
2022/10/19 09:31:15;;;;;;;8.03;4.30;;;;;;;12.24;84.96;100643.45;1781874;80;25582;-67
2022/10/19 09:33:45;;;;;;;8.08;4.58;;;;;;;12.26;85.01;100637.16;1776248;79;25436;-67
2022/10/19 09:36:12;;;;;;;5.80;4.72;;;;;;;12.30;85.10;100634.63;1763258;80;27250;-65
2022/10/19 09:38:40;;;;;;;7.60;4.80;;;;;;;12.31;84.73;100644.37;1781623;79;25532;-67
2022/10/19 09:41:17;;;;;;;6.22;3.95;;;;;;;12.31;84.42;100650.59;1786782;79;25248;-67
2022/10/19 09:43:52;;;;;;;9.13;4.42;;;;;;;12.33;84.53;100652.42;1791318;79;25667;-65
2022/10/19 09:46:58;;;;;;;5.80;3.95;;;;;;;12.36;84.66;100673.25;1796186;79;25559;-66
2022/10/19 09:49:44;;;;;;;4.08;2.98;;;;;;;12.37;84.27;100682.44;1787356;79;27425;-67
2022/10/19 09:52:36;;;;;;;4.35;1.98;;;;;;;12.34;83.76;100670.84;1784515;78;25610;-66
2022/10/19 09:55:18;;;;;;;3.05;1.72;;;;;;;12.29;82.85;100680.48;1781555;79;25431;-67
2022/10/19 09:57:49;;;;;;;3.02;1.30;;;;;;;12.23;82.54;100687.16;1725269;81;25661;-66
2022/10/19 10:00:25;;;;;;;1.42;1.00;;;;;;;12.15;82.35;100681.35;1724756;81;25551;-67
2022/10/19 10:02:55;;;;;;;2.02;1.37;;;;;;;12.06;82.12;100685.93;1711952;81;28193;-67
2022/10/19 10:05:33;;;;;;;3.75;1.12;;;;;;;11.99;82.29;100685.57;1679688;84;26513;-66
2022/10/19 10:08:03;;;;;;;4.28;1.42;;;;;;;11.93;82.64;100679.45;1719092;82;25221;-67
2022/10/19 10:10:36;;;;;;;3.37;1.30;;;;;;;11.92;82.85;100681.14;1709614;82;25609;-68
2022/10/19 10:13:05;;;;;;;2.77;1.70;;;;;;;11.90;83.14;100684.66;1716282;82;25192;-67
2022/10/19 10:15:43;;;;;;;4.65;1.82;;;;;;;11.90;83.31;100692.80;1667989;83;27301;-67
2022/10/19 10:18:16;;;;;;;3.17;1.27;;;;;;;11.89;83.31;100692.00;1715529;82;25665;-67
2022/10/19 10:21:10;;;;;;;1.95;1.40;;;;;;;11.87;83.26;100696.14;1716139;82;25278;-69
2022/10/19 10:23:37;;;;;;;2.62;1.30;;;;;;;11.86;83.57;100688.55;1721508;82;25816;-68
2022/10/19 10:26:16;;;;;;;2.45;1.72;;;;;;;11.87;83.62;100692.08;1706711;82;26152;-68
2022/10/19 10:28:49;;;;;;;1.32;1.17;;;;;;;11.89;84.19;100689.86;1714041;82;27202;-70
2022/10/19 10:31:29;;;;;;;3.95;1.42;;;;;;;12.01;85.09;100683.34;1707708;82;25772;-67
2022/10/19 10:34:00;;;;;;;;;;;;;;;12.18;85.50;100690.80;1672158;81;25441;-68
2022/10/19 10:36:29;;;;;;;6.00;1.60;;;;;;;12.35;86.04;100686.02;1723839;81;26229;-66
2022/10/19 10:39:06;;;;;;;3.35;1.57;;;;;;;12.47;85.39;100682.73;1754248;81;25499;-67
2022/10/19 10:41:39;;;;;;;2.05;1.40;;;;;;;12.52;84.78;100682.03;1698459;83;27791;-66
2022/10/19 10:44:15;;;;;;;3.92;1.30;;;;;;;12.57;84.52;100689.81;1760887;80;25525;-65
2022/10/19 10:46:56;;;;;;;1.40;1.30;;;;;;;12.64;84.43;100678.73;1776599;80;25283;-67
2022/10/19 10:49:27;;;;;;;5.33;1.47;;;;;;;12.67;83.81;100685.46;1752305;80;25932;-68
2022/10/19 10:52:12;;;;;;;2.60;1.20;;;;;;;12.80;84.50;100687.81;1785081;80;25620;-68
2022/10/19 10:54:40;;;;;;;1.55;1.35;;;;;;;12.91;84.01;100680.20;1780921;80;28053;-64
2022/10/19 10:57:18;;;;;;;4.15;1.70;;;;;;;13.12;84.69;100680.40;1765946;80;25681;-66
2022/10/19 11:00:00;;;;;;;4.10;2.10;;;;;;;13.25;83.50;100679.47;1781447;80;25237;-64
2022/10/19 11:02:59;;;;;;;6.22;1.85;;;;;;;13.32;83.09;100683.11;1750725;80;25567;-66
2022/10/19 11:05:40;;;;;;;2.98;1.30;;;;;;;13.38;81.82;100683.17;1784505;78;25634;-65
2022/10/19 11:08:38;;;;;;;4.77;1.50;;;;;;;13.42;81.87;100678.16;1788365;78;27246;-66
2022/10/19 11:11:24;;;;;;;2.80;1.20;;;;;;;13.48;81.63;100692.38;1796183;78;25477;-64
2022/10/19 11:13:59;;;;;;;2.87;1.50;;;;;;;13.54;81.12;100687.03;1786805;79;25571;-66
2022/10/19 11:16:41;;;;;;;2.30;1.50;;;;;;;13.63;81.01;100689.19;1803324;78;25719;-64
2022/10/19 11:19:21;;;;;;;3.55;1.50;;;;;;;13.76;81.26;100690.16;1820266;78;25604;-66
2022/10/19 11:22:16;;;;;;;3.75;1.90;;;;;;;13.95;80.38;100694.47;1809302;78;27192;-66
2022/10/19 11:25:01;;;;;;;3.60;1.62;;;;;;;14.34;83.82;100689.34;1806734;78;25806;-64
2022/10/19 11:28:02;;;;;;;7.78;2.30;;;;;;;15.17;86.11;100689.16;1764078;81;25480;-65
2022/10/19 11:30:35;;;;;;;3.83;2.02;;;;;;;16.15;83.61;100685.56;1769479;80;26134;-64
2022/10/19 11:33:23;;;;;;;3.50;1.12;;;;;;;16.83;80.07;100686.23;1772806;80;25318;-64
2022/10/19 11:36:00;;;;;;;1.80;1.00;;;;;;;17.41;78.07;100689.61;1820394;78;27354;-63
2022/10/19 11:39:19;;;;;;;3.77;1.40;;;;;;;18.15;76.77;100685.26;1761540;81;25460;-64
2022/10/19 11:42:16;;;;;;;2.77;1.42;;;;;;;18.60;72.67;100698.31;1775393;80;25647;-63
2022/10/19 11:45:10;;;;;;;3.00;1.35;;;;;;;19.16;72.08;100687.13;1802015;78;25622;-66
2022/10/19 11:47:50;;;;;;;2.40;1.15;;;;;;;19.68;70.19;100689.22;1799021;78;25504;-65